Terminal Aerodrome Forecast
Issued by NWS

Home | Current Version | Previous Version | Text Only | Print | Product List | Glossary On
Versions: 1 2 3 4 5 6 7 8 9 10 11 12 13 14 15 16
000
FTUS42 KTBW 222323 AAA
TAFLAL
TAF AMD
KLAL 222323Z 2223/2324 26010KT P6SM VCTS BKN050CB BKN150
      TEMPO 2223/2224 VRB15G25KT 3SM TSRA
     FM230100 VRB05KT P6SM SCT050 BKN200
     FM230900 VRB04KT P6SM SCT015 SCT250
     FM231300 19011KT P6SM SCT030 BKN250
     FM231700 23015G22KT P6SM SCT030 BKN250=

USA.gov is the U.S. government's official web portal to all federal, state and local government web resources and services.